Quick Links (Output Below):   Max & Min Temps   /   Climate Reports   /   Zone Forecasts
River Forecasts   /   Forestry Forecasts   /   Aviation Forecasts   /   Radars   /   Features

Terminal Aerodrome Forecast (Little Rock)

Pick a Site:
Arkadelphia | El Dorado | Fayetteville | Fort Smith | Harrison | Highfill | Hot Springs | Jonesboro
Little Rock | Monticello | Mountain Home | Pine Bluff | Texarkana
 Forecast 

KLIT 202337Z 2100/2124 00000KT P6SM SCT250
      TEMPO 2110/2114 5SM BR
     FM211500 33007KT P6SM SCT050 SCT250=


 Latest METARs (Observations) 
How to Decode METARs
00Z KLIT 202353Z 21003KT 10SM FEW150 SCT250 28/20 A2995 RMK AO2 SLP142
         T02830200 10328 20283 56011
         
***** Today's Observations (Above) *****


23Z KLIT 202253Z 21003KT 10SM FEW050 SCT120 BKN250 31/18 A2996 RMK AO2
         SLP145 T03060183
         
22Z KLIT 202153Z 15003KT 10SM FEW055 SCT110 BKN250 31/17 A2997 RMK AO2
         SLP147 TCU DSNT SW T03110172
         
21Z KLIT 202053Z 19003KT 10SM SCT055 BKN250 31/17 A2998 RMK AO2 SLP153
         TCU DSNT SW AND W MDT CU N T03110172 56021
         
20Z KLIT 201953Z 07006KT 10SM SCT060 SCT095 BKN250 33/18 A2999 RMK AO2
         SLP156 MDT CU SW-NW T03280178
         
19Z KLIT 201853Z 00000KT 10SM SCT050TCU BKN250 32/17 A3002 RMK AO2
         SLP166 TCU SW-NW T03220167
         
18Z KLIT 201753Z VRB03KT 10SM SCT050 SCT250 32/18 A3005 RMK AO2 SLP174
         T03170183 10322 20200 58008
         
17Z KLIT 201653Z 15004KT 10SM FEW050 31/19 A3007 RMK AO2 SLP183
         T03060189
         
16Z KLIT 201553Z 00000KT 10SM FEW050 29/19 A3008 RMK AO2 SLP184
         T02890189
         
15Z KLIT 201453Z 14003KT 10SM CLR 27/19 A3007 RMK AO2 SLP182 T02720189
         51012
         
***** Yesterday's Observations (Above) *****


Back to Main Page
http://www.srh.noaa.gov/lzk/qfcst.php

USA.gov is the U.S. government's official web portal to all federal, state and local government web resources and services.